Time;durP1;ratioP1;P1;durP2;ratioP2;P2;SDS_P1;SDS_P2;PMS_P1;PMS_P2;Temp;Humidity;BMP_temperature;BMP_pressure;BME280_temperature;BME280_humidity;BME280_pressure;Samples;Min_cycle;Max_cycle;Signal;HPM_P1;HPM_P2
2022/04/20 00:00:50;;;;;;;5.60;3.93;;;8.00;85.80;;;;;;5071885;28;20483;-64
2022/04/20 00:03:16;;;;;;;5.10;3.33;;;8.20;85.90;;;;;;5071789;28;21060;-63
2022/04/20 00:05:45;;;;;;;4.03;3.57;;;8.20;85.50;;;;;;5071723;28;20447;-64
2022/04/20 00:08:11;;;;;;;6.17;3.73;;;8.20;85.00;;;;;;5071825;28;20450;-63
2022/04/20 00:10:38;;;;;;;4.27;3.60;;;8.30;86.90;;;;;;5071734;28;20439;-64
2022/04/20 00:13:06;;;;;;;5.73;3.40;;;8.20;86.50;;;;;;5071630;28;20446;-64
2022/04/20 00:15:33;;;;;;;7.00;3.90;;;8.20;86.80;;;;;;5071663;28;20447;-60
2022/04/20 00:18:00;;;;;;;5.97;3.63;;;8.10;87.40;;;;;;5071893;28;20828;-63
2022/04/20 00:20:27;;;;;;;5.03;3.27;;;8.10;87.30;;;;;;5071594;28;20574;-65
2022/04/20 00:22:54;;;;;;;6.07;3.57;;;8.10;87.50;;;;;;5071521;28;20450;-64
2022/04/20 00:25:21;;;;;;;5.17;3.20;;;8.00;85.90;;;;;;5071124;28;20458;-64
2022/04/20 00:27:48;;;;;;;3.77;2.80;;;7.90;87.30;;;;;;5071386;28;20462;-64
2022/04/20 00:30:16;;;;;;;4.50;3.20;;;7.90;88.10;;;;;;5071593;28;20905;-64
2022/04/20 00:32:43;;;;;;;5.63;3.73;;;7.80;90.10;;;;;;5071426;28;20443;-64
2022/04/20 00:35:11;;;;;;;9.47;5.93;;;7.70;88.90;;;;;;5071021;28;20503;-60
2022/04/20 00:37:42;;;;;;;4.60;3.17;;;7.60;89.80;;;;;;5071423;28;20985;-63
2022/04/20 00:40:10;;;;;;;4.60;3.40;;;7.50;90.30;;;;;;5071238;28;20483;-65
2022/04/20 00:42:40;;;;;;;6.47;3.33;;;7.50;90.40;;;;;;5071319;28;20447;-66
2022/04/20 00:45:09;;;;;;;7.23;4.30;;;7.50;91.30;;;;;;5070690;28;20859;-64
2022/04/20 00:47:38;;;;;;;4.77;3.67;;;7.40;91.70;;;;;;5071113;28;21357;-63
2022/04/20 00:50:06;;;;;;;6.37;3.80;;;7.40;91.80;;;;;;5070985;28;20449;-64
2022/04/20 00:52:33;;;;;;;4.53;3.70;;;7.30;92.90;;;;;;5070974;28;20457;-66
2022/04/20 00:55:00;;;;;;;5.73;4.13;;;7.30;93.30;;;;;;5070614;28;20985;-65
2022/04/20 00:57:27;;;;;;;4.87;4.20;;;7.20;94.10;;;;;;5071135;28;20450;-68
2022/04/20 00:59:57;;;;;;;5.20;4.43;;;7.20;95.00;;;;;;5071015;28;20574;-63
2022/04/20 01:02:24;;;;;;;5.03;4.10;;;7.20;95.30;;;;;;5070970;28;20841;-66
2022/04/20 01:04:52;;;;;;;5.40;4.03;;;7.10;95.40;;;;;;5070459;28;20471;-65
2022/04/20 01:07:19;;;;;;;6.37;4.57;;;7.00;95.40;;;;;;5071068;28;20895;-65
2022/04/20 01:09:46;;;;;;;5.60;4.40;;;6.90;96.00;;;;;;5070851;28;20470;-65
2022/04/20 01:12:14;;;;;;;7.47;4.53;;;6.90;97.60;;;;;;5070833;28;20446;-66
2022/04/20 01:14:42;;;;;;;5.50;4.60;;;6.90;97.60;;;;;;5070597;28;20563;-64
2022/04/20 01:17:09;;;;;;;5.70;4.77;;;6.80;97.40;;;;;;5070856;28;20884;-65
2022/04/20 01:19:38;;;;;;;6.40;5.17;;;6.80;98.60;;;;;;5070969;28;20447;-65
2022/04/20 01:22:07;;;;;;;9.40;4.83;;;6.80;99.20;;;;;;5070627;28;20459;-65
2022/04/20 01:24:35;;;;;;;5.37;4.30;;;6.80;99.90;;;;;;5070211;28;20554;-66
2022/04/20 01:27:03;;;;;;;7.43;5.30;;;6.70;99.90;;;;;;5070600;28;20892;-66
2022/04/20 01:29:30;;;;;;;5.43;4.73;;;6.60;99.80;;;;;;5070505;28;20439;-65
2022/04/20 01:31:57;;;;;;;5.97;4.40;;;6.60;99.90;;;;;;5070333;28;20443;-65
2022/04/20 01:34:24;;;;;;;5.20;4.63;;;6.50;99.90;;;;;;5069973;28;21056;-67
2022/04/20 01:36:51;;;;;;;8.73;5.57;;;6.40;99.90;;;;;;5070454;28;20451;-66
2022/04/20 01:39:19;;;;;;;7.43;5.33;;;6.40;99.90;;;;;;5069639;28;20447;-66
2022/04/20 01:41:46;;;;;;;6.10;5.40;;;6.40;99.90;;;;;;5070143;28;20513;-66
2022/04/20 01:44:15;;;;;;;6.23;5.70;;;6.30;99.90;;;;;;5069718;28;21044;-65
2022/04/20 01:46:42;;;;;;;5.90;5.30;;;6.20;99.90;;;;;;5070116;28;20450;-65
2022/04/20 01:49:09;;;;;;;6.77;6.07;;;6.10;99.90;;;;;;5070356;28;20483;-65
2022/04/20 01:51:50;;;;;;;6.50;5.43;;;6.00;99.90;;;;;;5070159;28;20443;-65
2022/04/20 01:54:19;;;;;;;5.50;5.00;;;6.00;99.90;;;;;;5069589;28;20570;-65
2022/04/20 01:56:47;;;;;;;5.77;5.17;;;5.90;99.90;;;;;;5069935;28;20448;-65
2022/04/20 01:59:14;;;;;;;6.10;5.33;;;6.00;99.90;;;;;;5070186;28;20829;-64
2022/04/20 02:04:35;;;;;;;7.37;6.40;;;5.90;99.90;;;;;;5021754;28;20964;-65
2022/04/20 02:07:02;;;;;;;5.20;4.70;;;6.00;99.90;;;;;;5069885;28;20447;-65
2022/04/20 02:09:30;;;;;;;5.00;4.50;;;6.00;99.90;;;;;;5069758;28;20467;-65
2022/04/20 02:11:57;;;;;;;6.53;4.80;;;5.90;99.90;;;;;;5069974;28;20457;-65
2022/04/20 02:14:23;;;;;;;5.63;5.03;;;5.90;99.90;;;;;;5069538;28;20860;-66
2022/04/20 02:16:50;;;;;;;6.90;6.10;;;5.80;99.90;;;;;;5069778;28;20443;-65
2022/04/20 02:19:17;;;;;;;5.90;5.10;;;5.70;99.90;;;;;;5069733;28;20447;-65
2022/04/20 02:21:44;;;;;;;6.67;5.07;;;5.70;99.90;;;;;;5069440;28;20486;-65
2022/04/20 02:24:11;;;;;;;6.27;3.90;;;5.70;99.90;;;;;;5069544;28;20467;-65
2022/04/20 02:26:39;;;;;;;5.70;4.70;;;5.70;99.90;;;;;;5069566;28;20474;-65
2022/04/20 02:29:06;;;;;;;6.20;4.50;;;5.70;99.90;;;;;;5069724;28;20447;-65
2022/04/20 02:31:32;;;;;;;4.93;4.43;;;5.60;99.90;;;;;;5069700;28;20467;-65
2022/04/20 02:33:59;;;;;;;5.80;4.70;;;5.60;99.90;;;;;;5069495;28;20980;-65
2022/04/20 02:36:27;;;;;;;5.53;4.80;;;5.50;99.90;;;;;;5069264;28;20895;-66
2022/04/20 02:38:54;;;;;;;4.67;4.23;;;5.40;99.90;;;;;;5069508;28;20443;-66
2022/04/20 02:41:21;;;;;;;4.87;4.40;;;5.40;99.90;;;;;;5069602;28;20491;-65
2022/04/20 02:43:49;;;;;;;7.63;4.50;;;5.40;99.90;;;;;;5069516;28;20471;-65
2022/04/20 02:46:16;;;;;;;6.30;5.37;;;5.40;99.90;;;;;;5069147;28;20451;-65
2022/04/20 02:48:43;;;;;;;6.30;5.40;;;5.30;99.90;;;;;;5069504;28;20459;-66
2022/04/20 02:51:10;;;;;;;5.87;5.27;;;5.30;99.90;;;;;;5071956;28;20447;-65
2022/04/20 02:53:37;;;;;;;7.50;5.90;;;5.20;99.90;;;;;;5073316;28;20471;-65
2022/04/20 02:56:04;;;;;;;6.00;5.40;;;5.20;99.90;;;;;;5073281;28;20450;-66
2022/04/20 02:58:31;;;;;;;6.33;5.70;;;5.20;99.90;;;;;;5073494;28;20449;-66
2022/04/20 03:00:59;;;;;;;6.20;5.60;;;5.20;99.90;;;;;;5073185;28;20474;-65
2022/04/20 03:03:26;;;;;;;7.53;6.47;;;5.10;99.90;;;;;;5073102;28;20988;-64
2022/04/20 03:05:53;;;;;;;5.50;5.00;;;5.00;99.90;;;;;;5072794;28;20454;-65
2022/04/20 03:08:20;;;;;;;6.90;5.43;;;5.00;99.90;;;;;;5073136;28;20505;-65
2022/04/20 03:10:47;;;;;;;7.10;5.40;;;4.90;99.90;;;;;;5073251;28;20451;-65
2022/04/20 03:13:13;;;;;;;5.53;4.93;;;4.90;99.90;;;;;;5073156;28;20493;-66
2022/04/20 03:15:40;;;;;;;8.53;5.47;;;4.90;99.90;;;;;;5072869;28;20447;-66
2022/04/20 03:18:09;;;;;;;6.97;5.77;;;4.80;99.90;;;;;;5072985;28;20446;-65
2022/04/20 03:20:35;;;;;;;7.60;4.83;;;4.80;99.90;;;;;;5073086;28;21003;-65
2022/04/20 03:23:02;;;;;;;8.13;5.60;;;4.70;99.90;;;;;;5073116;28;20929;-65
2022/04/20 03:25:32;;;;;;;7.03;5.37;;;4.70;99.90;;;;;;5072845;28;20482;-65
2022/04/20 03:27:59;;;;;;;6.97;5.23;;;4.60;99.90;;;;;;5073162;28;20443;-66
2022/04/20 03:30:27;;;;;;;6.80;5.90;;;4.60;99.90;;;;;;5073006;28;20538;-66
2022/04/20 03:32:54;;;;;;;7.13;5.97;;;4.60;99.90;;;;;;5073045;28;20443;-66
2022/04/20 03:35:23;;;;;;;7.20;6.03;;;4.50;99.90;;;;;;5072581;28;20534;-66
2022/04/20 03:37:49;;;;;;;8.73;5.47;;;4.50;99.90;;;;;;5072773;28;20439;-66
2022/04/20 03:40:17;;;;;;;6.77;6.17;;;4.40;99.90;;;;;;5072715;28;20443;-66
2022/04/20 03:42:46;;;;;;;6.10;5.40;;;4.30;99.90;;;;;;5072714;28;20474;-64
2022/04/20 03:45:13;;;;;;;6.77;5.37;;;4.30;99.90;;;;;;5072005;28;21008;-66
2022/04/20 03:47:40;;;;;;;6.23;5.63;;;4.20;99.90;;;;;;5072638;28;20443;-65
2022/04/20 03:50:08;;;;;;;7.60;5.50;;;4.20;99.90;;;;;;5072306;28;21012;-66
2022/04/20 03:52:38;;;;;;;6.67;6.07;;;4.20;99.90;;;;;;5072515;28;20435;-66
2022/04/20 03:55:05;;;;;;;6.20;5.40;;;4.20;99.90;;;;;;5072281;28;21189;-65
2022/04/20 03:57:34;;;;;;;7.80;5.33;;;4.20;99.90;;;;;;5072266;28;20461;-65
2022/04/20 04:00:01;;;;;;;6.33;5.80;;;4.20;99.90;;;;;;5072122;28;20458;-65
2022/04/20 04:02:28;;;;;;;6.97;6.00;;;4.10;99.90;;;;;;5071565;28;20483;-65
2022/04/20 04:04:56;;;;;;;6.97;6.37;;;4.00;99.90;;;;;;5071930;28;20467;-65
2022/04/20 04:07:22;;;;;;;9.57;6.53;;;3.90;99.90;;;;;;5072210;28;20447;-65
2022/04/20 04:09:51;;;;;;;7.03;6.00;;;3.70;99.90;;;;;;5072066;28;20442;-65
2022/04/20 04:12:23;;;;;;;7.37;6.60;;;3.70;99.90;;;;;;5071771;28;20446;-65
2022/04/20 04:14:49;;;;;;;8.63;5.90;;;3.70;99.90;;;;;;5071693;28;20459;-67
2022/04/20 04:17:16;;;;;;;7.43;6.63;;;3.60;99.90;;;;;;5072066;28;20530;-65
2022/04/20 04:19:43;;;;;;;8.13;6.37;;;3.60;99.90;;;;;;5071887;28;20451;-65
2022/04/20 04:22:10;;;;;;;8.57;7.10;;;3.50;99.90;;;;;;5071661;28;20484;-65
2022/04/20 04:24:37;;;;;;;8.20;6.23;;;3.60;99.90;;;;;;5071480;28;20562;-65
2022/04/20 04:27:06;;;;;;;8.43;7.07;;;3.60;99.90;;;;;;5072008;28;20461;-65
2022/04/20 04:29:37;;;;;;;7.60;6.57;;;3.50;99.90;;;;;;5071779;28;20439;-65
2022/04/20 04:32:05;;;;;;;10.50;7.43;;;3.50;99.90;;;;;;5072234;28;20500;-64
2022/04/20 04:34:32;;;;;;;9.93;7.20;;;3.40;99.90;;;;;;5071493;28;20478;-65
2022/04/20 04:36:59;;;;;;;7.93;6.10;;;3.40;99.90;;;;;;5071617;28;20438;-65
2022/04/20 04:39:28;;;;;;;8.00;6.70;;;3.50;99.90;;;;;;5072073;28;20447;-66
2022/04/20 04:41:56;;;;;;;8.10;6.23;;;3.40;99.90;;;;;;5071460;28;20536;-65
2022/04/20 04:44:24;;;;;;;9.40;7.57;;;3.50;99.90;;;;;;5071019;28;20478;-66
2022/04/20 04:49:35;;;;;;;8.73;7.70;;;3.40;99.90;;;;;;5071400;28;20465;-65
2022/04/20 04:52:02;;;;;;;9.33;7.90;;;3.60;99.90;;;;;;5071210;28;20469;-65
2022/04/20 04:54:30;;;;;;;11.47;7.37;;;3.80;99.90;;;;;;5070976;28;20480;-65
2022/04/20 04:56:56;;;;;;;7.30;6.30;;;3.80;99.90;;;;;;5071325;28;20487;-65
2022/04/20 04:59:25;;;;;;;9.70;6.37;;;3.90;99.90;;;;;;5071281;28;20458;-64
2022/04/20 05:01:51;;;;;;;9.30;6.20;;;4.10;99.90;;;;;;5071115;28;21225;-65
2022/04/20 05:04:19;;;;;;;9.03;7.47;;;4.20;99.90;;;;;;5070585;28;20549;-65
2022/04/20 05:06:47;;;;;;;7.47;6.53;;;4.20;99.90;;;;;;5070841;28;20462;-65
2022/04/20 05:09:14;;;;;;;7.10;6.40;;;4.20;99.90;;;;;;5071053;28;20457;-64
2022/04/20 05:11:40;;;;;;;9.40;7.00;;;4.20;99.90;;;;;;5070760;28;20523;-65
2022/04/20 05:14:07;;;;;;;7.27;5.93;;;4.20;99.90;;;;;;5069321;28;20980;-65
2022/04/20 05:16:36;;;;;;;6.83;5.93;;;4.10;99.90;;;;;;5070530;28;20538;-65
2022/04/20 05:19:03;;;;;;;11.13;6.53;;;4.20;99.90;;;;;;5070459;28;20500;-66
2022/04/20 05:21:30;;;;;;;7.60;6.90;;;4.20;99.90;;;;;;5070601;28;20492;-65
2022/04/20 05:23:58;;;;;;;7.80;6.20;;;4.30;99.90;;;;;;5070461;28;20467;-65
2022/04/20 05:26:25;;;;;;;8.07;7.27;;;4.30;99.90;;;;;;5070262;28;20999;-67
2022/04/20 05:28:52;;;;;;;7.97;7.17;;;4.50;99.90;;;;;;5070549;28;20451;-60
2022/04/20 05:31:19;;;;;;;7.00;6.23;;;4.50;99.90;;;;;;5070431;28;20505;-64
2022/04/20 05:33:47;;;;;;;7.00;5.77;;;4.60;99.90;;;;;;5070204;28;20459;-62
2022/04/20 05:36:14;;;;;;;8.63;6.70;;;4.70;99.90;;;;;;5070609;28;20538;-65
2022/04/20 05:41:43;;;;;;;6.37;5.77;;;4.80;99.90;;;;;;5070576;28;20466;-65
2022/04/20 05:44:11;;;;;;;8.87;7.17;;;4.80;99.90;;;;;;5069906;28;20466;-65
2022/04/20 05:46:39;;;;;;;7.70;6.40;;;5.00;99.90;;;;;;5070351;28;20447;-64
2022/04/20 05:49:07;;;;;;;7.70;6.73;;;5.00;99.90;;;;;;5070258;28;20475;-64
2022/04/20 05:51:34;;;;;;;7.97;6.60;;;5.00;99.90;;;;;;5070097;28;20486;-66
2022/04/20 05:54:00;;;;;;;7.97;6.50;;;5.10;99.90;;;;;;5070009;28;20907;-64
2022/04/20 05:56:27;;;;;;;8.60;6.70;;;5.20;99.90;;;;;;5069725;28;20448;-64
2022/04/20 05:58:54;;;;;;;7.43;6.73;;;5.20;99.90;;;;;;5069906;28;20447;-64
2022/04/20 06:01:24;;;;;;;8.50;7.30;;;5.30;99.90;;;;;;5070059;28;20573;-64
2022/04/20 06:03:51;;;;;;;8.33;7.13;;;5.40;99.90;;;;;;5069858;28;20471;-66
2022/04/20 06:06:19;;;;;;;8.27;7.47;;;5.50;99.90;;;;;;5069565;28;20443;-65
2022/04/20 06:08:47;;;;;;;7.37;6.10;;;5.70;99.90;;;;;;5069850;28;20478;-68
2022/04/20 06:11:14;;;;;;;8.13;6.80;;;5.70;99.90;;;;;;5069744;28;20494;-65
2022/04/20 06:13:40;;;;;;;7.23;6.47;;;5.80;99.90;;;;;;5069829;28;20546;-67
2022/04/20 06:16:08;;;;;;;8.83;6.80;;;5.90;99.90;;;;;;5069424;28;20937;-65
2022/04/20 06:18:34;;;;;;;9.00;7.13;;;5.90;99.90;;;;;;5069786;28;20447;-65
2022/04/20 06:21:02;;;;;;;8.87;7.03;;;6.10;99.90;;;;;;5069666;28;20471;-67
2022/04/20 06:23:30;;;;;;;7.30;6.33;;;6.20;99.90;;;;;;5069551;28;20565;-65
2022/04/20 06:25:57;;;;;;;9.10;5.90;;;6.30;99.90;;;;;;5068974;28;20455;-65
2022/04/20 06:28:25;;;;;;;6.33;5.63;;;6.40;99.90;;;;;;5069767;28;20446;-65
2022/04/20 06:30:53;;;;;;;6.70;6.00;;;6.40;99.90;;;;;;5069710;28;20829;-65
2022/04/20 06:33:21;;;;;;;6.17;5.27;;;6.60;99.90;;;;;;5069362;28;21044;-66
2022/04/20 06:35:49;;;;;;;6.70;5.90;;;6.70;99.90;;;;;;5069276;28;20443;-66
2022/04/20 06:38:16;;;;;;;8.30;7.10;;;6.80;99.90;;;;;;5069450;28;20838;-65
2022/04/20 06:40:44;;;;;;;6.30;5.70;;;6.90;99.90;;;;;;5069677;28;20447;-66
2022/04/20 06:43:11;;;;;;;9.27;5.80;;;7.00;99.90;;;;;;5069417;28;21020;-66
2022/04/20 06:45:38;;;;;;;5.90;5.30;;;7.10;99.90;;;;;;5069347;28;21186;-65
2022/04/20 06:48:06;;;;;;;7.20;5.60;;;7.20;99.90;;;;;;5069444;28;20505;-61
2022/04/20 06:50:32;;;;;;;5.67;4.80;;;7.30;99.90;;;;;;5069328;28;20541;-65
2022/04/20 06:58:38;;;;;;;7.00;5.10;;;7.70;99.90;;;;;;5069414;28;20423;-66
2022/04/20 07:01:07;;;;;;;6.23;5.17;;;7.90;99.90;;;;;;5069212;28;20446;-66
2022/04/20 07:03:34;;;;;;;6.47;5.77;;;8.00;99.90;;;;;;5068947;28;20853;-65
2022/04/20 07:06:02;;;;;;;5.73;4.40;;;8.20;99.90;;;;;;5068844;28;20447;-66
2022/04/20 07:08:29;;;;;;;6.20;5.60;;;8.30;99.90;;;;;;5069263;28;20945;-62
2022/04/20 07:10:58;;;;;;;5.30;4.80;;;8.40;99.90;;;;;;5069257;28;20451;-67
2022/04/20 07:13:25;;;;;;;6.20;4.93;;;8.50;99.90;;;;;;5069143;28;20463;-66
2022/04/20 07:15:51;;;;;;;6.10;4.70;;;8.60;99.90;;;;;;5069003;28;20453;-66
2022/04/20 07:18:18;;;;;;;6.70;5.20;;;8.70;99.90;;;;;;5069299;28;20473;-65
2022/04/20 07:20:45;;;;;;;6.03;5.13;;;8.80;99.90;;;;;;5069034;28;20466;-64
2022/04/20 07:23:12;;;;;;;6.60;5.00;;;8.90;99.90;;;;;;5069199;28;20490;-66
2022/04/20 07:25:39;;;;;;;6.67;5.60;;;9.00;99.90;;;;;;5068931;28;20454;-66
2022/04/20 07:28:08;;;;;;;6.90;5.10;;;9.10;99.90;;;;;;5068966;28;20454;-65
2022/04/20 07:30:36;;;;;;;5.90;4.87;;;9.20;99.90;;;;;;5068909;28;20443;-67
2022/04/20 07:33:04;;;;;;;5.30;4.80;;;9.30;99.90;;;;;;5069150;28;20444;-68
2022/04/20 07:35:31;;;;;;;5.60;5.10;;;9.40;99.90;;;;;;5068834;28;20446;-67
2022/04/20 07:37:58;;;;;;;4.67;4.27;;;9.40;99.90;;;;;;5070877;28;20447;-64
2022/04/20 07:40:25;;;;;;;6.17;4.83;;;9.60;99.90;;;;;;5072582;28;20800;-67
2022/04/20 07:42:54;;;;;;;8.50;5.10;;;9.70;99.90;;;;;;5072588;28;20483;-65
2022/04/20 07:45:25;;;;;;;5.30;4.80;;;9.80;99.90;;;;;;5072395;28;20451;-65
2022/04/20 07:47:54;;;;;;;6.90;4.40;;;9.90;99.90;;;;;;5072801;28;20820;-65
2022/04/20 07:50:23;;;;;;;6.07;5.10;;;10.00;99.90;;;;;;5072733;28;20941;-65
2022/04/20 07:52:53;;;;;;;6.20;4.20;;;10.10;99.40;;;;;;5072761;28;20512;-64
2022/04/20 07:55:21;;;;;;;5.10;4.60;;;10.10;99.00;;;;;;5072629;28;20451;-65
2022/04/20 07:57:49;;;;;;;5.47;4.63;;;10.20;99.10;;;;;;5072798;28;20443;-65
2022/04/20 08:00:17;;;;;;;6.60;4.33;;;10.30;98.80;;;;;;5072342;28;20447;-65
2022/04/20 08:02:47;;;;;;;6.70;5.10;;;10.40;97.90;;;;;;5071150;28;20492;-66
2022/04/20 08:05:15;;;;;;;6.60;4.50;;;10.40;97.90;;;;;;5071786;28;20307;-66
2022/04/20 08:07:44;;;;;;;4.50;4.10;;;10.50;98.40;;;;;;5071945;28;20455;-67
2022/04/20 08:10:13;;;;;;;5.50;4.50;;;10.60;97.80;;;;;;5072006;28;20455;-65
2022/04/20 08:12:41;;;;;;;5.13;4.20;;;10.70;97.60;;;;;;5072107;28;20442;-67
2022/04/20 08:15:09;;;;;;;5.00;4.40;;;10.80;97.80;;;;;;5071506;28;20561;-66
2022/04/20 08:17:37;;;;;;;5.33;4.70;;;10.90;96.00;;;;;;5071929;28;20453;-66
2022/04/20 08:20:07;;;;;;;5.00;4.50;;;10.90;96.70;;;;;;5071803;28;20449;-66
2022/04/20 08:22:40;;;;;;;5.30;4.33;;;10.80;94.60;;;;;;5071559;28;20474;-67
2022/04/20 08:25:08;;;;;;;6.27;4.53;;;10.90;96.30;;;;;;5071568;28;20482;-64
2022/04/20 08:27:35;;;;;;;4.50;4.10;;;11.00;95.80;;;;;;5071826;28;20533;-65
2022/04/20 08:30:03;;;;;;;6.33;3.63;;;11.00;93.40;;;;;;5071724;28;20451;-65
2022/04/20 08:32:30;;;;;;;6.83;4.50;;;11.00;95.90;;;;;;5071650;28;20455;-66
2022/04/20 08:34:57;;;;;;;5.40;4.13;;;11.10;94.00;;;;;;5071133;28;20471;-66
2022/04/20 08:37:26;;;;;;;5.40;3.97;;;11.30;95.50;;;;;;5071631;28;20892;-65
2022/04/20 08:39:52;;;;;;;4.50;4.10;;;11.50;94.80;;;;;;5071640;28;20443;-65
2022/04/20 08:42:22;;;;;;;4.77;4.27;;;11.50;93.60;;;;;;5071328;28;21163;-65
2022/04/20 08:44:50;;;;;;;5.13;4.47;;;11.60;94.10;;;;;;5071017;28;20493;-65
2022/04/20 08:47:21;;;;;;;8.90;4.60;;;11.60;93.40;;;;;;5071159;28;20550;-66
2022/04/20 08:49:49;;;;;;;6.50;4.60;;;11.70;92.70;;;;;;5071333;28;20451;-65
2022/04/20 08:55:04;;;;;;;4.80;4.27;;;11.90;92.60;;;;;;5070951;28;21006;-66
2022/04/20 08:57:32;;;;;;;4.20;3.77;;;12.10;90.90;;;;;;5071051;28;20451;-65
2022/04/20 08:59:59;;;;;;;8.40;3.80;;;12.10;91.40;;;;;;5071284;28;20447;-66
2022/04/20 09:02:28;;;;;;;5.80;4.30;;;12.20;92.20;;;;;;5071885;28;20781;-65
2022/04/20 09:04:55;;;;;;;4.47;3.73;;;12.30;90.80;;;;;;5070951;28;20467;-66
2022/04/20 09:07:22;;;;;;;7.13;4.07;;;12.40;91.80;;;;;;5071002;28;20459;-66
2022/04/20 09:09:50;;;;;;;7.20;4.67;;;12.40;90.40;;;;;;5070894;28;20446;-64
2022/04/20 09:12:23;;;;;;;4.47;3.90;;;12.60;90.80;;;;;;5070757;28;20465;-67
2022/04/20 09:14:51;;;;;;;6.30;4.23;;;12.70;90.30;;;;;;5070331;28;20463;-66
2022/04/20 09:17:20;;;;;;;4.90;4.20;;;12.80;89.10;;;;;;5070878;28;20827;-65
2022/04/20 09:19:49;;;;;;;6.00;4.63;;;12.90;88.40;;;;;;5070740;28;20455;-65
2022/04/20 09:22:21;;;;;;;6.43;5.13;;;13.00;89.20;;;;;;5070308;28;20463;-66
2022/04/20 09:24:59;;;;;;;6.10;4.40;;;13.20;89.00;;;;;;5070127;28;20470;-65
2022/04/20 09:27:30;;;;;;;5.90;4.10;;;13.40;89.30;;;;;;5070478;28;20446;-67
2022/04/20 09:29:57;;;;;;;4.63;4.20;;;13.80;84.40;;;;;;5070473;28;20447;-65
2022/04/20 09:32:38;;;;;;;4.60;4.20;;;14.30;84.60;;;;;;5070497;28;20477;-66
2022/04/20 09:35:10;;;;;;;6.10;3.63;;;15.00;84.30;;;;;;5069977;28;20474;-66
2022/04/20 09:37:38;;;;;;;4.43;4.00;;;14.90;80.50;;;;;;5070367;28;20972;-63
2022/04/20 09:40:06;;;;;;;5.17;4.03;;;15.10;74.00;;;;;;5070504;28;20449;-66
2022/04/20 09:42:35;;;;;;;6.20;3.60;;;15.20;77.70;;;;;;5070981;28;20475;-66
2022/04/20 09:45:04;;;;;;;5.60;3.43;;;15.60;78.20;;;;;;5069867;28;20467;-66
2022/04/20 09:50:22;;;;;;;4.43;4.03;;;16.00;74.80;;;;;;5070265;28;20423;-64
2022/04/20 09:52:50;;;;;;;4.43;4.00;;;16.80;70.60;;;;;;5070306;28;20439;-66
2022/04/20 09:55:28;;;;;;;4.17;3.60;;;17.20;70.70;;;;;;5069899;28;20826;-65
2022/04/20 09:58:12;;;;;;;4.00;3.60;;;17.60;66.20;;;;;;5069928;28;20535;-65
2022/04/20 10:00:40;;;;;;;4.83;3.83;;;17.80;68.30;;;;;;5069564;28;20447;-64
2022/04/20 10:03:08;;;;;;;3.50;2.87;;;18.10;67.90;;;;;;5070070;28;20528;-64
2022/04/20 10:05:36;;;;;;;4.50;3.00;;;18.10;57.90;;;;;;5069914;28;21023;-64
2022/04/20 10:08:04;;;;;;;4.53;3.00;;;18.10;60.70;;;;;;5070210;28;20949;-64
2022/04/20 10:10:32;;;;;;;3.73;3.27;;;18.20;60.00;;;;;;5070194;28;20504;-63
2022/04/20 10:13:01;;;;;;;5.20;3.43;;;18.30;62.20;;;;;;5070187;28;20443;-66
2022/04/20 10:18:18;;;;;;;4.30;2.80;;;18.50;61.50;;;;;;5069912;28;20422;-63
2022/04/20 10:20:48;;;;;;;4.27;3.23;;;18.20;59.50;;;;;;5069685;28;20459;-66
2022/04/20 10:23:18;;;;;;;4.43;2.93;;;18.40;57.70;;;;;;5069425;28;20483;-64
2022/04/20 10:25:46;;;;;;;3.40;2.70;;;18.90;58.50;;;;;;5069576;28;20540;-64
2022/04/20 10:28:20;;;;;;;4.47;3.43;;;19.00;58.10;;;;;;5069768;28;20439;-64
2022/04/20 10:31:00;;;;;;;3.40;2.77;;;19.40;57.30;;;;;;5069621;28;20976;-64
2022/04/20 10:33:31;;;;;;;3.30;2.70;;;19.50;55.30;;;;;;5069530;28;20897;-66
2022/04/20 10:35:59;;;;;;;4.60;3.20;;;19.30;55.70;;;;;;5069574;28;20459;-62
2022/04/20 10:38:29;;;;;;;4.23;3.60;;;19.40;52.60;;;;;;5069674;28;20451;-67
2022/04/20 10:40:59;;;;;;;3.77;3.00;;;19.00;54.10;;;;;;5069346;28;20454;-67
2022/04/20 10:43:27;;;;;;;6.13;3.53;;;18.90;54.60;;;;;;5069260;28;20552;-64
2022/04/20 10:46:15;;;;;;;3.60;3.07;;;19.20;55.30;;;;;;5069136;28;20500;-64
2022/04/20 10:48:48;;;;;;;3.80;3.07;;;19.20;56.10;;;;;;5069683;28;20442;-66
2022/04/20 10:51:16;;;;;;;5.10;2.90;;;19.20;54.70;;;;;;5069632;28;20581;-66
2022/04/20 10:53:45;;;;;;;4.03;2.77;;;19.30;54.40;;;;;;5069354;28;20467;-65
2022/04/20 10:56:13;;;;;;;3.50;2.90;;;19.30;55.00;;;;;;5069260;28;20501;-66
2022/04/20 10:59:08;;;;;;;3.70;2.90;;;19.20;53.30;;;;;;5069434;28;20546;-67
2022/04/20 11:02:09;;;;;;;3.80;3.13;;;19.60;53.30;;;;;;5069428;28;20446;-67
2022/04/20 11:04:39;;;;;;;3.83;2.80;;;19.30;53.30;;;;;;5068766;28;20491;-65
2022/04/20 11:07:30;;;;;;;3.20;2.87;;;19.30;52.70;;;;;;5069420;28;20473;-66
2022/04/20 11:09:59;;;;;;;4.30;3.20;;;19.40;51.70;;;;;;5065487;28;20465;-63
2022/04/20 11:18:45;;;;;;;4.30;3.53;;;19.30;54.20;;;;;;5073121;28;20480;-66
2022/04/20 11:21:19;;;;;;;5.03;3.67;;;19.60;53.10;;;;;;5072999;28;20454;-66
2022/04/20 11:23:55;;;;;;;4.37;3.00;;;19.60;52.60;;;;;;5072887;28;21255;-65
2022/04/20 11:26:25;;;;;;;4.33;3.30;;;19.10;51.60;;;;;;5072905;28;20447;-67
2022/04/20 11:28:52;;;;;;;5.20;3.50;;;19.30;52.30;;;;;;5072857;28;20870;-66
2022/04/20 11:31:19;;;;;;;3.70;3.07;;;19.90;51.90;;;;;;5072713;28;20534;-66
2022/04/20 11:33:48;;;;;;;6.03;3.00;;;20.60;53.50;;;;;;5072512;28;21082;-66
2022/04/20 11:36:15;;;;;;;6.20;3.47;;;20.70;49.40;;;;;;5072276;28;20490;-66
2022/04/20 11:38:45;;;;;;;3.80;3.10;;;20.70;49.20;;;;;;5072611;28;20454;-66
2022/04/20 11:41:12;;;;;;;4.40;3.60;;;21.00;50.00;;;;;;5072703;28;20489;-69
2022/04/20 11:43:40;;;;;;;3.60;2.93;;;21.10;50.20;;;;;;5072457;28;21300;-65
2022/04/20 11:46:08;;;;;;;4.60;3.70;;;21.70;50.20;;;;;;5072271;28;20450;-66
2022/04/20 11:48:36;;;;;;;4.40;3.47;;;22.30;48.30;;;;;;5072295;28;20443;-66
2022/04/20 11:51:08;;;;;;;4.80;4.30;;;22.50;48.60;;;;;;5072563;28;20455;-65
2022/04/20 11:53:37;;;;;;;5.47;4.00;;;22.70;48.50;;;;;;5072241;28;20473;-65
2022/04/20 11:56:07;;;;;;;4.73;3.53;;;22.90;48.50;;;;;;5072087;28;20457;-68
2022/04/20 11:58:34;;;;;;;4.73;3.50;;;23.10;46.40;;;;;;5072421;28;20451;-65
2022/04/20 12:01:02;;;;;;;4.37;3.97;;;22.00;48.00;;;;;;5072186;28;20933;-66
2022/04/20 12:03:33;;;;;;;4.20;3.80;;;22.20;48.90;;;;;;5072251;28;20907;-68
2022/04/20 12:06:02;;;;;;;4.33;3.47;;;22.40;45.00;;;;;;5071926;28;20451;-66
2022/04/20 12:08:31;;;;;;;4.13;3.73;;;22.90;48.50;;;;;;5072354;28;20443;-68
2022/04/20 12:11:01;;;;;;;3.73;3.20;;;21.90;43.00;;;;;;5072243;28;20453;-65
2022/04/20 12:13:29;;;;;;;4.60;4.03;;;22.00;46.80;;;;;;5072013;28;20467;-65
2022/04/20 12:16:04;;;;;;;3.80;3.40;;;22.70;49.20;;;;;;5071907;28;20454;-65
2022/04/20 12:18:35;;;;;;;4.80;2.90;;;23.40;47.90;;;;;;5072368;28;20447;-65
2022/04/20 12:21:03;;;;;;;5.30;3.80;;;24.20;47.90;;;;;;5071993;28;20494;-66
2022/04/20 12:23:35;;;;;;;4.53;3.50;;;24.60;48.90;;;;;;5071318;28;20493;-66
2022/04/20 12:26:04;;;;;;;3.60;3.13;;;25.00;46.00;;;;;;5071526;28;20461;-67
2022/04/20 12:28:42;;;;;;;3.20;2.90;;;25.30;44.00;;;;;;5072156;28;20534;-65
2022/04/20 12:31:12;;;;;;;4.40;3.50;;;25.20;44.90;;;;;;5071944;28;20442;-66
2022/04/20 12:33:39;;;;;;;4.07;3.60;;;25.40;42.10;;;;;;5071732;28;20459;-65
2022/04/20 12:36:08;;;;;;;4.20;3.80;;;24.50;44.10;;;;;;5071465;28;20880;-66
2022/04/20 12:38:44;;;;;;;4.33;3.60;;;24.80;45.70;;;;;;5071415;28;20443;-65
2022/04/20 12:41:41;;;;;;;5.77;3.23;;;25.30;44.70;;;;;;5071709;28;20450;-66
2022/04/20 12:44:40;;;;;;;3.90;2.90;;;26.00;45.70;;;;;;5071102;28;20474;-68
2022/04/20 12:47:39;;;;;;;6.40;2.80;;;26.10;44.10;;;;;;5071539;28;20493;-67
2022/04/20 12:50:37;;;;;;;3.90;2.60;;;26.10;42.80;;;;;;5071435;28;20538;-68
2022/04/20 12:53:04;;;;;;;4.00;3.30;;;26.30;43.80;;;;;;5071109;28;20450;-67
2022/04/20 12:55:41;;;;;;;3.70;3.30;;;25.00;39.20;;;;;;5071114;28;20515;-65
2022/04/20 13:03:45;;;;;;;5.27;3.83;;;25.60;43.90;;;;;;5070895;28;20896;-66
2022/04/20 13:06:13;;;;;;;6.10;2.83;;;25.30;42.80;;;;;;5070853;28;20447;-66
2022/04/20 13:08:41;;;;;;;3.87;3.53;;;24.50;43.80;;;;;;5071078;28;20450;-66
2022/04/20 13:11:11;;;;;;;3.77;2.90;;;24.50;39.80;;;;;;5071636;28;20452;-66
2022/04/20 13:13:39;;;;;;;4.30;2.90;;;24.30;39.90;;;;;;5070983;28;20459;-66
2022/04/20 13:16:09;;;;;;;6.77;3.40;;;24.40;46.00;;;;;;5070511;28;20455;-67
2022/04/20 13:18:36;;;;;;;4.10;2.43;;;25.20;45.10;;;;;;5070744;28;20451;-65
2022/04/20 13:21:03;;;;;;;4.20;2.93;;;24.70;45.00;;;;;;5070660;28;20465;-66
2022/04/20 13:23:30;;;;;;;4.10;2.90;;;25.10;43.10;;;;;;5070562;28;20467;-64
2022/04/20 13:28:43;;;;;;;4.33;2.50;;;26.20;42.30;;;;;;5070584;28;20476;-65
2022/04/20 13:31:10;;;;;;;4.13;2.53;;;26.90;41.80;;;;;;5070335;28;20534;-64
2022/04/20 13:33:38;;;;;;;7.33;2.90;;;27.80;40.20;;;;;;5052662;28;20567;-65
2022/04/20 13:36:08;;;;;;;3.67;3.10;;;25.40;36.50;;;;;;5069376;28;20458;-67
2022/04/20 13:38:34;;;;;;;4.40;3.20;;;23.80;39.00;;;;;;5070459;28;20699;-63